createdAt,value
2019-05-21T00:00:01.800Z,15.70
2019-05-21T00:02:30.449Z,16.42
2019-05-21T00:04:59.177Z,14.87
2019-05-21T00:07:27.897Z,14.60
2019-05-21T00:09:56.648Z,14.58
2019-05-21T00:12:25.262Z,13.13
2019-05-21T00:14:53.973Z,13.78
2019-05-21T00:17:22.534Z,13.15
2019-05-21T00:19:51.241Z,13.43
2019-05-21T00:22:19.979Z,11.88
2019-05-21T00:24:49.053Z,11.00
2019-05-21T00:27:17.711Z,12.18
2019-05-21T00:30:22.456Z,11.60
2019-05-21T00:33:26.854Z,10.70
2019-05-21T00:36:33.049Z,12.58
2019-05-21T00:39:37.449Z,12.47
2019-05-21T00:42:08.848Z,11.83
2019-05-21T00:44:40.567Z,13.50
2019-05-21T00:47:10.812Z,12.82
2019-05-21T00:49:39.625Z,13.18
2019-05-21T00:52:09.363Z,12.70
2019-05-21T00:54:38.276Z,12.18
2019-05-21T00:57:07.024Z,11.75
2019-05-21T00:59:35.749Z,11.18
2019-05-21T01:02:04.453Z,11.33
2019-05-21T01:04:33.249Z,11.93
2019-05-21T01:07:02.040Z,11.43
2019-05-21T01:09:30.907Z,11.57
2019-05-21T01:11:59.694Z,12.40
2019-05-21T01:14:28.399Z,12.25
2019-05-21T01:16:57.040Z,12.85
2019-05-21T01:19:25.861Z,12.73
2019-05-21T01:21:54.536Z,11.85
2019-05-21T01:24:23.210Z,13.62
2019-05-21T01:26:51.967Z,12.30
2019-05-21T01:29:20.575Z,13.05
2019-05-21T01:31:49.201Z,12.68
2019-05-21T01:34:17.952Z,13.08
2019-05-21T01:36:46.560Z,13.88
2019-05-21T01:39:15.334Z,13.03
2019-05-21T01:41:43.978Z,14.78
2019-05-21T01:44:12.692Z,14.65
2019-05-21T01:46:41.302Z,14.87
2019-05-21T01:49:10.099Z,14.47
2019-05-21T01:51:38.717Z,14.95
2019-05-21T01:54:07.270Z,14.83
2019-05-21T01:56:35.845Z,15.83
2019-05-21T01:59:06.031Z,15.08
2019-05-21T02:01:34.580Z,15.60
2019-05-21T02:04:03.267Z,15.78
2019-05-21T02:06:31.970Z,14.80
2019-05-21T02:09:00.563Z,16.42
2019-05-21T02:11:29.367Z,15.55
2019-05-21T02:13:58.163Z,15.03
2019-05-21T02:16:26.832Z,15.85
2019-05-21T02:18:55.505Z,15.43
2019-05-21T02:21:24.217Z,14.47
2019-05-21T02:23:52.852Z,15.95
2019-05-21T02:26:21.500Z,15.30
2019-05-21T02:28:50.104Z,14.50
2019-05-21T02:31:18.735Z,14.18
2019-05-21T02:33:47.522Z,14.80
2019-05-21T02:36:16.222Z,14.58
2019-05-21T02:38:44.952Z,15.15
2019-05-21T02:41:13.758Z,15.20
2019-05-21T02:43:42.506Z,15.55
2019-05-21T02:46:11.197Z,15.20
2019-05-21T02:48:39.961Z,15.32
2019-05-21T02:51:08.681Z,14.68
2019-05-21T02:53:37.367Z,15.70
2019-05-21T02:56:06.025Z,16.32
2019-05-21T02:58:34.706Z,16.62
2019-05-21T03:01:11.243Z,17.73
2019-05-21T03:03:40.152Z,16.95
2019-05-21T03:06:14.273Z,18.23
2019-05-21T03:08:39.185Z,18.02
2019-05-21T03:11:07.887Z,17.27
2019-05-21T03:13:36.503Z,16.12
2019-05-21T03:16:05.375Z,16.77
2019-05-21T03:18:34.089Z,16.93
2019-05-21T03:21:02.776Z,15.80
2019-05-21T03:23:31.641Z,16.60
2019-05-21T03:26:00.704Z,16.30
2019-05-21T03:28:29.418Z,16.40
2019-05-21T03:30:58.634Z,15.43
2019-05-21T03:33:27.705Z,16.62
2019-05-21T03:35:56.787Z,14.75
2019-05-21T03:38:25.995Z,15.03
2019-05-21T03:40:55.066Z,15.03
2019-05-21T03:43:24.126Z,15.00
2019-05-21T03:45:54.213Z,14.85
2019-05-21T03:48:23.327Z,13.85
2019-05-21T03:50:52.637Z,13.15
2019-05-21T03:53:21.873Z,13.22
2019-05-21T03:55:50.998Z,12.47
2019-05-21T03:58:20.042Z,13.05
2019-05-21T04:00:49.301Z,12.20
2019-05-21T04:03:18.450Z,11.22
2019-05-21T04:05:47.880Z,12.33
2019-05-21T04:08:17.125Z,11.55
2019-05-21T04:10:46.332Z,12.43
2019-05-21T04:13:15.499Z,12.65
2019-05-21T04:15:55.018Z,12.78
2019-05-21T04:18:25.608Z,12.80
2019-05-21T04:20:54.864Z,12.88
2019-05-21T04:23:25.479Z,11.95
2019-05-21T04:25:54.489Z,11.40
2019-05-21T04:28:23.651Z,11.50
2019-05-21T04:30:52.857Z,11.78
2019-05-21T04:33:21.989Z,11.60
2019-05-21T04:35:51.720Z,10.80
2019-05-21T04:38:20.916Z,10.60
2019-05-21T04:40:49.996Z,11.73
2019-05-21T04:43:19.269Z,11.45
2019-05-21T04:45:48.554Z,10.88
2019-05-21T04:48:17.736Z,11.48
2019-05-21T04:50:46.951Z,11.50
2019-05-21T04:53:16.022Z,10.93
2019-05-21T04:55:45.289Z,12.73
2019-05-21T04:58:14.569Z,11.95
2019-05-21T05:00:43.852Z,12.18
2019-05-21T05:03:13.078Z,12.40
2019-05-21T05:05:42.262Z,12.90
2019-05-21T05:08:11.350Z,12.88
2019-05-21T05:10:40.617Z,11.95
2019-05-21T05:13:09.728Z,11.70
2019-05-21T05:15:39.102Z,11.43
2019-05-21T05:18:08.270Z,11.88
2019-05-21T05:20:37.564Z,11.93
2019-05-21T05:23:06.888Z,11.90
2019-05-21T05:25:35.734Z,12.03
2019-05-21T05:28:05.001Z,11.48
2019-05-21T05:30:34.147Z,10.90
2019-05-21T05:33:03.256Z,12.00
2019-05-21T05:35:32.389Z,12.20
2019-05-21T05:38:01.494Z,11.68
2019-05-21T05:40:30.918Z,11.85
2019-05-21T05:43:00.100Z,11.78
2019-05-21T05:45:29.294Z,12.15
2019-05-21T05:47:58.411Z,12.60
2019-05-21T05:50:32.305Z,11.03
2019-05-21T05:53:01.474Z,11.65
2019-05-21T05:55:30.541Z,11.83
2019-05-21T05:57:59.623Z,12.50
2019-05-21T06:00:28.792Z,12.70
2019-05-21T06:02:58.188Z,12.13
2019-05-21T06:05:27.479Z,12.85
2019-05-21T06:07:59.821Z,12.70
2019-05-21T06:10:27.485Z,13.53
2019-05-21T06:12:56.815Z,12.60
2019-05-21T06:15:25.978Z,13.30
2019-05-21T06:17:55.230Z,13.28
2019-05-21T06:20:24.865Z,12.88
2019-05-21T06:22:55.378Z,12.10
2019-05-21T06:25:24.702Z,12.45
2019-05-21T06:27:53.633Z,12.58
2019-05-21T06:30:22.766Z,11.68
2019-05-21T06:32:51.965Z,13.05
2019-05-21T06:35:21.146Z,12.00
2019-05-21T06:37:50.660Z,11.60
2019-05-21T06:40:19.982Z,13.15
2019-05-21T06:42:49.242Z,12.43
2019-05-21T06:45:19.126Z,11.70
2019-05-21T06:47:48.160Z,13.60
2019-05-21T06:50:17.389Z,13.05
2019-05-21T06:52:46.421Z,13.22
2019-05-21T06:55:15.571Z,12.45
2019-05-21T06:57:44.885Z,13.28
2019-05-21T07:00:15.861Z,13.35
2019-05-21T07:02:45.114Z,12.60
2019-05-21T07:05:14.475Z,12.55
2019-05-21T07:07:43.587Z,13.00
2019-05-21T07:10:13.083Z,12.10
2019-05-21T07:12:42.195Z,12.15
2019-05-21T07:15:11.713Z,12.35
2019-05-21T07:17:40.857Z,11.93
2019-05-21T07:20:10.453Z,11.22
2019-05-21T07:22:39.649Z,12.18
2019-05-21T07:25:09.071Z,11.50
2019-05-21T07:27:38.088Z,12.00
2019-05-21T07:30:09.664Z,11.28
2019-05-21T07:35:07.152Z,11.15
2019-05-21T07:37:36.604Z,13.35
2019-05-21T07:40:08.330Z,12.10
2019-05-21T07:42:37.603Z,12.13
2019-05-21T07:45:07.620Z,12.25
2019-05-21T07:47:36.950Z,11.88
2019-05-21T07:50:07.102Z,11.93
2019-05-21T07:52:36.200Z,11.33
2019-05-21T07:55:05.720Z,10.50
2019-05-21T07:57:34.874Z,10.10
2019-05-21T08:00:05.505Z,10.72
2019-05-21T08:02:34.560Z,11.87
2019-05-21T08:05:04.079Z,11.43
2019-05-21T08:07:33.135Z,10.82
2019-05-21T08:10:02.156Z,10.65
2019-05-21T08:12:38.990Z,10.93
2019-05-21T08:15:02.149Z,9.88
2019-05-21T08:17:31.405Z,10.13
2019-05-21T08:20:09.524Z,9.83
2019-05-21T08:22:31.903Z,10.23
2019-05-21T08:25:01.367Z,10.53
2019-05-21T08:27:30.802Z,9.58
2019-05-21T08:29:59.926Z,9.90
2019-05-21T08:32:29.110Z,9.43
2019-05-21T08:34:58.250Z,9.10
2019-05-21T08:37:27.438Z,8.80
2019-05-21T08:39:56.821Z,8.73
2019-05-21T08:42:25.999Z,8.68
2019-05-21T08:44:55.372Z,8.63
2019-05-21T08:47:24.585Z,9.38
2019-05-21T08:49:53.652Z,8.65
2019-05-21T08:52:23.026Z,9.38
2019-05-21T08:54:55.782Z,9.35
2019-05-21T08:57:23.106Z,9.55
2019-05-21T08:59:52.217Z,9.35
2019-05-21T09:02:21.312Z,9.20
2019-05-21T09:04:50.501Z,8.83
2019-05-21T09:07:19.484Z,8.83
2019-05-21T09:09:51.195Z,8.80
2019-05-21T09:12:19.544Z,9.28
2019-05-21T09:14:48.825Z,9.10
2019-05-21T09:17:17.896Z,9.05
2019-05-21T09:19:47.173Z,9.58
2019-05-21T09:22:16.369Z,10.23
2019-05-21T09:24:45.354Z,8.75
2019-05-21T09:27:14.525Z,9.80
2019-05-21T09:29:43.640Z,9.73
2019-05-21T09:32:12.764Z,9.18
2019-05-21T09:34:48.856Z,9.85
2019-05-21T09:37:19.533Z,10.60
2019-05-21T09:39:44.579Z,9.98
2019-05-21T09:42:13.692Z,10.93
2019-05-21T09:44:44.527Z,10.68
2019-05-21T09:47:15.080Z,12.23
2019-05-21T09:49:44.111Z,11.23
2019-05-21T09:52:13.284Z,11.18
2019-05-21T09:54:44.475Z,12.18
2019-05-21T09:57:15.252Z,12.85
2019-05-21T10:00:02.153Z,12.90
2019-05-21T10:02:33.506Z,11.90
2019-05-21T10:05:02.738Z,12.37
2019-05-21T10:07:40.134Z,12.75
2019-05-21T10:10:02.447Z,12.82
2019-05-21T10:12:31.509Z,12.35
2019-05-21T10:15:00.846Z,12.07
2019-05-21T10:17:31.435Z,11.75
2019-05-21T10:20:01.007Z,12.40
2019-05-21T10:22:30.112Z,12.45
2019-05-21T10:24:59.442Z,11.85
2019-05-21T10:27:28.653Z,12.13
2019-05-21T10:29:57.638Z,11.88
2019-05-21T10:32:28.219Z,11.10
2019-05-21T10:34:57.408Z,11.27
2019-05-21T10:37:26.795Z,11.38
2019-05-21T10:39:55.965Z,10.20
2019-05-21T10:42:25.827Z,10.53
2019-05-21T10:44:55.054Z,10.65
2019-05-21T10:47:25.355Z,11.43
2019-05-21T10:49:55.541Z,10.20
2019-05-21T10:52:24.732Z,9.83
2019-05-21T10:54:53.682Z,10.10
2019-05-21T10:57:24.127Z,10.78
2019-05-21T10:59:53.404Z,9.83
2019-05-21T11:02:24.070Z,10.05
2019-05-21T11:04:54.787Z,9.83
2019-05-21T11:07:24.175Z,9.70
2019-05-21T11:09:53.969Z,9.80
2019-05-21T11:12:23.241Z,9.50
2019-05-21T11:14:52.488Z,10.05
2019-05-21T11:17:21.924Z,9.05
2019-05-21T11:19:51.305Z,9.48
2019-05-21T11:22:20.510Z,9.18
2019-05-21T11:24:49.875Z,10.25
2019-05-21T11:27:19.098Z,9.73
2019-05-21T11:29:48.439Z,8.25
2019-05-21T11:32:17.607Z,8.28
2019-05-21T11:34:49.961Z,8.20
2019-05-21T11:37:17.743Z,9.00
2019-05-21T11:39:46.853Z,7.85
2019-05-21T11:42:16.195Z,8.43
2019-05-21T11:44:45.732Z,8.80
2019-05-21T11:47:15.024Z,8.53
2019-05-21T11:49:44.358Z,8.78
2019-05-21T11:52:13.772Z,8.48
2019-05-21T11:54:43.034Z,9.30
2019-05-21T11:57:13.822Z,8.60
2019-05-21T11:59:42.747Z,8.40
2019-05-21T12:02:13.305Z,8.80
2019-05-21T12:04:42.296Z,8.73
2019-05-21T12:07:12.109Z,9.05
2019-05-21T12:09:41.462Z,8.55
2019-05-21T12:12:10.406Z,8.70
2019-05-21T12:14:39.548Z,9.13
2019-05-21T12:17:08.506Z,9.65
2019-05-21T12:19:37.772Z,8.65
2019-05-21T12:22:06.825Z,7.90
2019-05-21T12:24:36.269Z,8.70
2019-05-21T12:27:05.487Z,8.50
2019-05-21T12:29:34.934Z,8.20
2019-05-21T12:32:05.859Z,7.80
2019-05-21T12:34:38.597Z,9.33
2019-05-21T12:37:06.223Z,8.55
2019-05-21T12:39:35.487Z,9.10
2019-05-21T12:42:04.710Z,8.98
2019-05-21T12:44:33.848Z,9.90
2019-05-21T12:47:03.011Z,9.53
2019-05-21T12:49:32.388Z,9.10
2019-05-21T12:52:02.906Z,9.30
2019-05-21T12:54:32.187Z,8.40
2019-05-21T12:57:01.381Z,8.85
2019-05-21T12:59:30.438Z,8.30
2019-05-21T13:01:59.626Z,8.30
2019-05-21T13:04:28.762Z,8.00
2019-05-21T13:06:57.869Z,8.85
2019-05-21T13:09:32.923Z,8.45
2019-05-21T13:11:57.743Z,9.13
2019-05-21T13:14:26.806Z,8.18
2019-05-21T13:16:57.226Z,8.30
2019-05-21T13:19:28.770Z,9.27
2019-05-21T13:21:58.985Z,7.95
2019-05-21T13:24:28.287Z,10.72
2019-05-21T13:26:57.307Z,10.18
2019-05-21T13:29:27.700Z,11.60
2019-05-21T13:31:56.720Z,12.35
2019-05-21T13:34:25.890Z,11.70
2019-05-21T13:36:55.263Z,13.60
2019-05-21T13:39:25.771Z,15.25
2019-05-21T13:41:55.327Z,18.30
2019-05-21T13:44:24.517Z,15.80
2019-05-21T13:46:53.590Z,15.28
2019-05-21T13:49:22.695Z,13.55
2019-05-21T13:51:52.800Z,13.98
2019-05-21T13:54:21.940Z,13.25
2019-05-21T13:56:51.270Z,12.90
2019-05-21T13:59:20.503Z,11.68
2019-05-21T14:01:49.882Z,11.97
2019-05-21T14:04:19.191Z,11.55
2019-05-21T14:06:51.159Z,11.30
2019-05-21T14:09:20.570Z,10.38
2019-05-21T14:11:50.021Z,10.85
2019-05-21T14:14:19.083Z,11.48
2019-05-21T14:16:49.151Z,11.63
2019-05-21T14:19:18.453Z,11.35
2019-05-21T14:21:47.860Z,10.75
2019-05-21T14:24:17.320Z,10.85
2019-05-21T14:26:46.529Z,10.85
2019-05-21T14:29:15.962Z,10.25
2019-05-21T14:31:46.567Z,11.12
2019-05-21T14:34:15.735Z,10.13
2019-05-21T14:36:44.949Z,10.63
2019-05-21T14:39:15.603Z,9.35
2019-05-21T14:41:45.022Z,10.53
2019-05-21T14:44:14.055Z,9.85
2019-05-21T14:46:43.356Z,10.03
2019-05-21T14:49:12.363Z,9.00
2019-05-21T14:51:41.713Z,9.58
2019-05-21T14:54:25.322Z,9.55
2019-05-21T14:56:46.369Z,8.80
2019-05-21T14:59:12.664Z,8.80
2019-05-21T15:01:41.779Z,9.60
2019-05-21T15:04:11.111Z,9.68
2019-05-21T15:06:40.187Z,8.60
2019-05-21T15:09:09.623Z,8.95
2019-05-21T15:11:40.350Z,8.38
2019-05-21T15:14:09.731Z,8.58
2019-05-21T15:16:39.095Z,9.53
2019-05-21T15:19:08.257Z,8.65
2019-05-21T15:21:39.083Z,8.83
2019-05-21T15:24:08.514Z,8.73
2019-05-21T15:26:37.716Z,7.65
2019-05-21T15:29:07.101Z,9.23
2019-05-21T15:31:36.331Z,8.38
2019-05-21T15:34:06.394Z,9.40
2019-05-21T15:36:35.527Z,9.15
2019-05-21T15:39:06.708Z,9.03
2019-05-21T15:41:37.626Z,9.18
2019-05-21T15:44:06.846Z,7.92
2019-05-21T15:46:47.870Z,10.03
2019-05-21T15:49:08.774Z,8.38
2019-05-21T15:51:39.494Z,8.58
2019-05-21T15:54:08.799Z,9.58
2019-05-21T15:56:37.873Z,8.38
2019-05-21T15:59:07.075Z,9.60
2019-05-21T16:01:39.926Z,9.48
2019-05-21T16:04:07.102Z,7.85
2019-05-21T16:06:36.349Z,8.00
2019-05-21T16:09:09.016Z,8.33
2019-05-21T16:11:38.134Z,8.75
2019-05-21T16:14:07.377Z,8.65
2019-05-21T16:16:36.384Z,9.70
2019-05-21T16:19:05.780Z,8.58
2019-05-21T16:21:34.957Z,8.90
2019-05-21T16:24:07.375Z,9.00
2019-05-21T16:26:36.499Z,9.38
2019-05-21T16:29:05.771Z,8.68
2019-05-21T16:31:36.435Z,8.83
2019-05-21T16:34:06.283Z,7.20
2019-05-21T16:36:35.590Z,7.83
2019-05-21T16:39:06.839Z,7.55
2019-05-21T16:41:44.605Z,7.37
2019-05-21T16:44:07.202Z,7.55
2019-05-21T16:46:36.354Z,6.97
2019-05-21T16:49:05.787Z,7.17
2019-05-21T16:51:38.128Z,7.20
2019-05-21T16:54:07.300Z,6.22
2019-05-21T16:56:36.397Z,6.65
2019-05-21T16:59:05.655Z,6.25
2019-05-21T17:01:34.931Z,4.67
2019-05-21T17:04:04.351Z,4.35
2019-05-21T17:06:33.539Z,4.45
2019-05-21T17:09:04.356Z,3.95
2019-05-21T17:11:33.617Z,3.42
2019-05-21T17:14:02.862Z,3.67
2019-05-21T17:16:33.315Z,3.33
2019-05-21T17:19:02.443Z,3.08
2019-05-21T17:21:31.755Z,3.50
2019-05-21T17:24:01.008Z,3.55
2019-05-21T17:26:30.132Z,2.98
2019-05-21T17:29:00.587Z,2.80
2019-05-21T17:31:29.623Z,3.17
2019-05-21T17:33:58.640Z,3.15
2019-05-21T17:36:27.946Z,3.50
2019-05-21T17:38:57.327Z,3.00
2019-05-21T17:41:27.735Z,2.90
2019-05-21T17:43:58.138Z,2.33
2019-05-21T17:46:29.102Z,2.30
2019-05-21T17:48:58.137Z,2.08
2019-05-21T17:51:27.478Z,2.85
2019-05-21T17:53:58.650Z,2.33
2019-05-21T17:56:27.739Z,2.08
2019-05-21T17:58:57.162Z,1.92
2019-05-21T18:01:26.682Z,2.35
2019-05-21T18:03:56.340Z,2.47
2019-05-21T18:06:25.625Z,2.27
2019-05-21T18:08:56.239Z,2.55
2019-05-21T18:11:25.451Z,2.60
2019-05-21T18:13:54.720Z,3.00
2019-05-21T18:16:24.103Z,2.75
2019-05-21T18:18:53.420Z,2.45
2019-05-21T18:21:23.735Z,2.45
2019-05-21T18:23:53.031Z,2.50
2019-05-21T18:26:22.746Z,2.10
2019-05-21T18:28:52.033Z,2.33
2019-05-21T18:31:21.234Z,2.30
2019-05-21T18:33:50.651Z,2.50
2019-05-21T18:36:19.834Z,2.50
2019-05-21T18:38:49.171Z,2.52
2019-05-21T18:41:18.426Z,2.30
2019-05-21T18:43:50.078Z,2.40
2019-05-21T18:46:18.531Z,2.80
2019-05-21T18:48:47.660Z,2.95
2019-05-21T18:51:16.820Z,2.67
2019-05-21T18:53:46.729Z,2.02
2019-05-21T18:56:15.944Z,2.30
2019-05-21T18:58:44.968Z,2.15
2019-05-21T19:01:14.513Z,2.25
2019-05-21T19:03:43.650Z,2.40
2019-05-21T19:06:12.948Z,2.42
2019-05-21T19:08:42.205Z,2.52
2019-05-21T19:11:11.270Z,2.62
2019-05-21T19:13:40.444Z,2.52
2019-05-21T19:16:09.476Z,2.70
2019-05-21T19:18:38.651Z,2.87
2019-05-21T19:21:07.621Z,2.87
2019-05-21T19:23:36.786Z,3.25
2019-05-21T19:26:05.889Z,3.27
2019-05-21T19:28:35.489Z,2.72
2019-05-21T19:31:05.371Z,2.90
2019-05-21T19:33:34.417Z,3.15
2019-05-21T19:36:03.604Z,3.22
2019-05-21T19:38:32.635Z,2.85
2019-05-21T19:41:01.327Z,3.37
2019-05-21T19:43:30.275Z,4.20
2019-05-21T19:46:00.800Z,3.65
2019-05-21T19:48:31.175Z,3.45
2019-05-21T19:51:00.501Z,3.00
2019-05-21T19:53:30.015Z,3.50
2019-05-21T19:55:58.796Z,3.50
2019-05-21T19:58:27.506Z,3.67
2019-05-21T20:00:56.569Z,3.92
2019-05-21T20:03:25.397Z,3.50
2019-05-21T20:05:54.378Z,4.10
2019-05-21T20:08:23.838Z,3.62
2019-05-21T20:10:52.643Z,3.75
2019-05-21T20:13:32.181Z,4.00
2019-05-21T20:15:52.021Z,3.75
2019-05-21T20:18:21.339Z,4.00
2019-05-21T20:20:50.840Z,3.75
2019-05-21T20:23:19.799Z,3.92
2019-05-21T20:25:56.568Z,3.85
2019-05-21T20:28:19.982Z,3.53
2019-05-21T20:30:50.502Z,3.72
2019-05-21T20:33:19.953Z,3.75
2019-05-21T20:35:49.704Z,3.95
2019-05-21T20:38:19.323Z,4.08
2019-05-21T20:40:48.093Z,3.77
2019-05-21T20:43:16.958Z,3.47
2019-05-21T20:45:48.488Z,4.35
2019-05-21T20:48:18.766Z,3.27
2019-05-21T20:50:48.361Z,3.55
2019-05-21T20:53:17.186Z,3.27
2019-05-21T20:55:45.823Z,3.60
2019-05-21T20:58:14.619Z,3.35
2019-05-21T21:00:53.840Z,3.25
2019-05-21T21:03:23.151Z,3.27
2019-05-21T21:05:52.231Z,3.50
2019-05-21T21:08:22.421Z,3.55
2019-05-21T21:10:51.463Z,3.20
2019-05-21T21:13:20.363Z,3.30
2019-05-21T21:15:49.078Z,3.02
2019-05-21T21:18:17.866Z,3.10
2019-05-21T21:20:46.680Z,3.30
2019-05-21T21:23:17.359Z,3.90
2019-05-21T21:25:46.285Z,3.87
2019-05-21T21:28:14.891Z,3.58
2019-05-21T21:30:44.503Z,3.45
2019-05-21T21:33:13.544Z,3.72
2019-05-21T21:35:42.438Z,3.20
2019-05-21T21:38:13.082Z,3.35
2019-05-21T21:40:41.943Z,4.10
2019-05-21T21:43:10.485Z,3.90
2019-05-21T21:45:39.461Z,3.22
2019-05-21T21:48:11.127Z,2.92
2019-05-21T21:53:08.439Z,2.77
2019-05-21T21:55:37.090Z,2.80
2019-05-21T21:58:05.812Z,2.50
2019-05-21T22:01:00.036Z,2.60
2019-05-21T22:03:33.877Z,2.30
2019-05-21T22:06:04.472Z,2.50
2019-05-21T22:08:33.915Z,2.47
2019-05-21T22:11:03.047Z,2.40
2019-05-21T22:13:31.757Z,2.83
2019-05-21T22:16:01.090Z,2.58
2019-05-21T22:18:30.410Z,2.40
2019-05-21T22:20:59.617Z,2.20
2019-05-21T22:23:28.740Z,2.25
2019-05-21T22:25:58.208Z,2.15
2019-05-21T22:28:26.749Z,1.70
2019-05-21T22:30:55.774Z,2.00
2019-05-21T22:33:24.552Z,1.90
2019-05-21T22:35:54.350Z,1.95
2019-05-21T22:38:23.887Z,2.12
2019-05-21T22:40:52.674Z,2.10
2019-05-21T22:43:21.520Z,2.30
2019-05-21T22:45:50.340Z,2.45
2019-05-21T22:48:19.153Z,2.15
2019-05-21T22:50:47.831Z,1.92
2019-05-21T22:53:16.505Z,2.08
2019-05-21T22:55:45.167Z,2.40
2019-05-21T22:58:14.648Z,2.58
2019-05-21T23:00:44.270Z,2.30
2019-05-21T23:03:13.081Z,2.60
2019-05-21T23:05:41.827Z,2.70
2019-05-21T23:08:10.875Z,2.85
2019-05-21T23:10:39.599Z,2.77
2019-05-21T23:13:08.299Z,3.00
2019-05-21T23:15:37.234Z,3.12
2019-05-21T23:18:06.078Z,3.25
2019-05-21T23:20:36.462Z,3.00
2019-05-21T23:23:06.064Z,3.22
2019-05-21T23:25:36.644Z,2.90
2019-05-21T23:28:05.807Z,3.35
2019-05-21T23:30:34.764Z,3.40
2019-05-21T23:33:04.626Z,3.50
2019-05-21T23:35:37.134Z,2.95
2019-05-21T23:38:59.404Z,3.12
2019-05-21T23:44:00.017Z,3.45
2019-05-21T23:46:29.774Z,3.85
2019-05-21T23:48:58.453Z,3.27
2019-05-21T23:51:27.124Z,3.65
2019-05-21T23:53:55.864Z,3.50
2019-05-21T23:56:24.679Z,3.52
2019-05-21T23:58:53.732Z,3.62
